sensor_id;sensor_type;location;lat;lon;timestamp;temperature;humidity
21092;DHT22;10704;42.678;23.288;2023-05-09T00:01:35;13.20;99.90
21092;DHT22;10704;42.678;23.288;2023-05-09T00:04:01;13.20;99.90
21092;DHT22;10704;42.678;23.288;2023-05-09T00:06:27;13.10;99.90
21092;DHT22;10704;42.678;23.288;2023-05-09T00:08:54;13.00;99.90
21092;DHT22;10704;42.678;23.288;2023-05-09T00:11:20;13.10;99.90
21092;DHT22;10704;42.678;23.288;2023-05-09T00:13:49;13.00;99.90
21092;DHT22;10704;42.678;23.288;2023-05-09T00:16:16;13.00;99.90
21092;DHT22;10704;42.678;23.288;2023-05-09T00:18:42;13.00;99.90
21092;DHT22;10704;42.678;23.288;2023-05-09T00:21:09;13.00;99.90
21092;DHT22;10704;42.678;23.288;2023-05-09T00:23:36;13.10;99.90
21092;DHT22;10704;42.678;23.288;2023-05-09T00:26:03;13.00;99.90
21092;DHT22;10704;42.678;23.288;2023-05-09T00:28:29;13.00;99.90
21092;DHT22;10704;42.678;23.288;2023-05-09T00:30:55;13.10;99.90
21092;DHT22;10704;42.678;23.288;2023-05-09T00:33:21;13.10;99.90
21092;DHT22;10704;42.678;23.288;2023-05-09T00:35:54;13.20;99.90
21092;DHT22;10704;42.678;23.288;2023-05-09T00:38:21;13.20;99.90
21092;DHT22;10704;42.678;23.288;2023-05-09T00:40:47;13.10;99.90
21092;DHT22;10704;42.678;23.288;2023-05-09T00:43:12;13.10;99.90
21092;DHT22;10704;42.678;23.288;2023-05-09T00:45:38;13.10;99.90
21092;DHT22;10704;42.678;23.288;2023-05-09T00:48:04;13.00;99.90
21092;DHT22;10704;42.678;23.288;2023-05-09T00:50:30;13.00;99.90
21092;DHT22;10704;42.678;23.288;2023-05-09T00:52:56;13.00;99.90
21092;DHT22;10704;42.678;23.288;2023-05-09T00:55:23;12.90;99.90
21092;DHT22;10704;42.678;23.288;2023-05-09T00:57:48;12.70;99.90
21092;DHT22;10704;42.678;23.288;2023-05-09T01:00:14;12.90;99.90
21092;DHT22;10704;42.678;23.288;2023-05-09T01:02:42;12.90;99.90
21092;DHT22;10704;42.678;23.288;2023-05-09T01:05:09;12.80;99.90
21092;DHT22;10704;42.678;23.288;2023-05-09T01:10:15;12.60;99.90
21092;DHT22;10704;42.678;23.288;2023-05-09T01:12:53;12.50;99.90
21092;DHT22;10704;42.678;23.288;2023-05-09T01:15:30;12.40;99.90
21092;DHT22;10704;42.678;23.288;2023-05-09T01:20:53;12.50;99.90
21092;DHT22;10704;42.678;23.288;2023-05-09T01:31:25;12.50;99.90
21092;DHT22;10704;42.678;23.288;2023-05-09T01:33:55;12.40;99.90
21092;DHT22;10704;42.678;23.288;2023-05-09T01:36:27;12.50;99.90
21092;DHT22;10704;42.678;23.288;2023-05-09T01:38:56;12.40;99.90
21092;DHT22;10704;42.678;23.288;2023-05-09T01:41:24;12.50;99.90
21092;DHT22;10704;42.678;23.288;2023-05-09T01:43:54;12.40;99.90
21092;DHT22;10704;42.678;23.288;2023-05-09T01:46:21;12.40;99.90
21092;DHT22;10704;42.678;23.288;2023-05-09T01:48:48;12.50;99.90
21092;DHT22;10704;42.678;23.288;2023-05-09T01:51:15;12.50;99.90
21092;DHT22;10704;42.678;23.288;2023-05-09T01:53:42;12.60;99.90
21092;DHT22;10704;42.678;23.288;2023-05-09T01:56:08;12.50;99.90
21092;DHT22;10704;42.678;23.288;2023-05-09T01:58:36;12.50;99.90
21092;DHT22;10704;42.678;23.288;2023-05-09T02:01:03;12.60;99.90
21092;DHT22;10704;42.678;23.288;2023-05-09T02:03:31;12.50;99.90
21092;DHT22;10704;42.678;23.288;2023-05-09T02:05:58;12.60;99.90
21092;DHT22;10704;42.678;23.288;2023-05-09T02:08:26;12.60;99.90
21092;DHT22;10704;42.678;23.288;2023-05-09T02:10:52;12.60;99.90
21092;DHT22;10704;42.678;23.288;2023-05-09T02:13:18;12.50;99.90
21092;DHT22;10704;42.678;23.288;2023-05-09T02:15:44;12.50;99.90
21092;DHT22;10704;42.678;23.288;2023-05-09T02:18:10;12.50;99.90
21092;DHT22;10704;42.678;23.288;2023-05-09T02:20:37;12.50;99.90
21092;DHT22;10704;42.678;23.288;2023-05-09T02:23:03;12.50;99.90
21092;DHT22;10704;42.678;23.288;2023-05-09T02:25:31;12.40;99.90
21092;DHT22;10704;42.678;23.288;2023-05-09T02:27:58;12.50;99.90
21092;DHT22;10704;42.678;23.288;2023-05-09T02:30:26;12.40;99.90
21092;DHT22;10704;42.678;23.288;2023-05-09T02:33:06;12.50;99.90
21092;DHT22;10704;42.678;23.288;2023-05-09T02:35:35;12.40;99.90
21092;DHT22;10704;42.678;23.288;2023-05-09T02:38:02;12.50;99.90
21092;DHT22;10704;42.678;23.288;2023-05-09T02:40:29;12.50;99.90
21092;DHT22;10704;42.678;23.288;2023-05-09T02:42:56;12.50;99.90
21092;DHT22;10704;42.678;23.288;2023-05-09T02:45:22;12.60;99.90
21092;DHT22;10704;42.678;23.288;2023-05-09T02:47:48;12.60;99.90
21092;DHT22;10704;42.678;23.288;2023-05-09T02:50:13;12.60;99.90
21092;DHT22;10704;42.678;23.288;2023-05-09T02:52:40;12.60;99.90
21092;DHT22;10704;42.678;23.288;2023-05-09T02:55:06;12.50;99.90
21092;DHT22;10704;42.678;23.288;2023-05-09T02:57:35;12.50;99.90
21092;DHT22;10704;42.678;23.288;2023-05-09T03:00:02;12.50;99.90
21092;DHT22;10704;42.678;23.288;2023-05-09T03:02:29;12.50;99.90
21092;DHT22;10704;42.678;23.288;2023-05-09T03:04:55;12.60;99.90
21092;DHT22;10704;42.678;23.288;2023-05-09T03:07:21;12.50;99.90
21092;DHT22;10704;42.678;23.288;2023-05-09T03:09:47;12.50;99.90
21092;DHT22;10704;42.678;23.288;2023-05-09T03:12:13;12.50;99.90
21092;DHT22;10704;42.678;23.288;2023-05-09T03:14:39;12.40;99.90
21092;DHT22;10704;42.678;23.288;2023-05-09T03:17:04;12.50;99.90
21092;DHT22;10704;42.678;23.288;2023-05-09T03:19:34;12.50;99.90
21092;DHT22;10704;42.678;23.288;2023-05-09T03:22:00;12.50;99.90
21092;DHT22;10704;42.678;23.288;2023-05-09T03:24:27;12.60;99.90
21092;DHT22;10704;42.678;23.288;2023-05-09T03:26:54;12.50;99.90
21092;DHT22;10704;42.678;23.288;2023-05-09T03:29:20;12.50;99.90
21092;DHT22;10704;42.678;23.288;2023-05-09T03:31:46;12.50;99.90
21092;DHT22;10704;42.678;23.288;2023-05-09T03:34:13;12.40;99.90
21092;DHT22;10704;42.678;23.288;2023-05-09T03:36:41;12.40;99.90
21092;DHT22;10704;42.678;23.288;2023-05-09T03:39:10;12.40;99.90
21092;DHT22;10704;42.678;23.288;2023-05-09T03:41:38;12.40;99.90
21092;DHT22;10704;42.678;23.288;2023-05-09T03:44:06;12.40;99.90
21092;DHT22;10704;42.678;23.288;2023-05-09T03:46:32;12.40;99.90
21092;DHT22;10704;42.678;23.288;2023-05-09T03:48:58;12.40;99.90
21092;DHT22;10704;42.678;23.288;2023-05-09T03:51:24;12.40;99.90
21092;DHT22;10704;42.678;23.288;2023-05-09T03:53:52;12.40;99.90
21092;DHT22;10704;42.678;23.288;2023-05-09T03:56:19;12.40;99.90
21092;DHT22;10704;42.678;23.288;2023-05-09T03:58:49;12.40;99.90
21092;DHT22;10704;42.678;23.288;2023-05-09T04:01:15;12.40;99.90
21092;DHT22;10704;42.678;23.288;2023-05-09T04:03:41;12.50;99.90
21092;DHT22;10704;42.678;23.288;2023-05-09T04:06:08;12.40;99.90
21092;DHT22;10704;42.678;23.288;2023-05-09T04:08:41;12.40;99.90
21092;DHT22;10704;42.678;23.288;2023-05-09T04:11:07;12.30;99.90
21092;DHT22;10704;42.678;23.288;2023-05-09T04:13:34;12.30;99.90
21092;DHT22;10704;42.678;23.288;2023-05-09T04:16:05;12.40;99.90
21092;DHT22;10704;42.678;23.288;2023-05-09T04:18:32;12.40;99.90
21092;DHT22;10704;42.678;23.288;2023-05-09T04:20:59;12.20;99.90
21092;DHT22;10704;42.678;23.288;2023-05-09T04:23:25;12.30;99.90
21092;DHT22;10704;42.678;23.288;2023-05-09T04:25:51;12.50;99.90
21092;DHT22;10704;42.678;23.288;2023-05-09T04:28:19;12.50;99.90
21092;DHT22;10704;42.678;23.288;2023-05-09T04:30:45;12.60;99.90
21092;DHT22;10704;42.678;23.288;2023-05-09T04:33:11;12.70;99.90
21092;DHT22;10704;42.678;23.288;2023-05-09T04:35:37;12.80;99.90
21092;DHT22;10704;42.678;23.288;2023-05-09T04:38:03;12.80;99.90
21092;DHT22;10704;42.678;23.288;2023-05-09T04:40:29;12.80;99.90
21092;DHT22;10704;42.678;23.288;2023-05-09T04:42:58;12.90;99.90
21092;DHT22;10704;42.678;23.288;2023-05-09T04:45:26;13.00;99.90
21092;DHT22;10704;42.678;23.288;2023-05-09T04:47:53;13.10;99.90
21092;DHT22;10704;42.678;23.288;2023-05-09T04:50:19;13.10;99.90
21092;DHT22;10704;42.678;23.288;2023-05-09T04:52:45;13.20;99.90
21092;DHT22;10704;42.678;23.288;2023-05-09T04:55:10;13.20;99.90
21092;DHT22;10704;42.678;23.288;2023-05-09T04:57:41;13.30;99.90
21092;DHT22;10704;42.678;23.288;2023-05-09T05:00:07;13.50;99.90
21092;DHT22;10704;42.678;23.288;2023-05-09T05:02:35;13.60;99.90
21092;DHT22;10704;42.678;23.288;2023-05-09T05:05:01;13.70;99.90
21092;DHT22;10704;42.678;23.288;2023-05-09T05:07:27;13.70;99.90
21092;DHT22;10704;42.678;23.288;2023-05-09T05:09:53;13.80;99.90
21092;DHT22;10704;42.678;23.288;2023-05-09T05:12:19;13.70;99.90
21092;DHT22;10704;42.678;23.288;2023-05-09T05:14:45;13.80;99.90
21092;DHT22;10704;42.678;23.288;2023-05-09T05:17:15;13.70;99.90
21092;DHT22;10704;42.678;23.288;2023-05-09T05:19:43;13.70;99.90
21092;DHT22;10704;42.678;23.288;2023-05-09T05:22:09;13.70;99.90
21092;DHT22;10704;42.678;23.288;2023-05-09T05:24:38;13.60;99.90
21092;DHT22;10704;42.678;23.288;2023-05-09T05:27:04;13.80;99.90
21092;DHT22;10704;42.678;23.288;2023-05-09T05:29:30;13.90;99.90
21092;DHT22;10704;42.678;23.288;2023-05-09T05:31:56;13.80;99.90
21092;DHT22;10704;42.678;23.288;2023-05-09T05:34:22;13.90;99.90
21092;DHT22;10704;42.678;23.288;2023-05-09T05:36:48;13.90;99.90
21092;DHT22;10704;42.678;23.288;2023-05-09T05:39:13;14.10;99.90
21092;DHT22;10704;42.678;23.288;2023-05-09T05:41:58;14.10;99.90
21092;DHT22;10704;42.678;23.288;2023-05-09T05:44:24;14.30;99.90
21092;DHT22;10704;42.678;23.288;2023-05-09T05:46:50;14.50;99.90
21092;DHT22;10704;42.678;23.288;2023-05-09T05:49:17;14.30;99.90
21092;DHT22;10704;42.678;23.288;2023-05-09T05:51:43;14.20;99.90
21092;DHT22;10704;42.678;23.288;2023-05-09T05:54:10;14.40;99.90
21092;DHT22;10704;42.678;23.288;2023-05-09T05:56:36;14.50;99.90
21092;DHT22;10704;42.678;23.288;2023-05-09T05:59:02;14.50;99.90
21092;DHT22;10704;42.678;23.288;2023-05-09T06:01:27;14.50;99.90
21092;DHT22;10704;42.678;23.288;2023-05-09T06:03:53;14.30;99.90
21092;DHT22;10704;42.678;23.288;2023-05-09T06:06:21;14.20;99.90
21092;DHT22;10704;42.678;23.288;2023-05-09T06:08:47;14.40;99.90
21092;DHT22;10704;42.678;23.288;2023-05-09T06:11:17;14.50;99.90
21092;DHT22;10704;42.678;23.288;2023-05-09T06:13:43;14.50;99.90
21092;DHT22;10704;42.678;23.288;2023-05-09T06:16:10;14.60;99.90
21092;DHT22;10704;42.678;23.288;2023-05-09T06:18:36;14.70;99.90
21092;DHT22;10704;42.678;23.288;2023-05-09T06:21:05;14.70;99.90
21092;DHT22;10704;42.678;23.288;2023-05-09T06:23:31;14.60;99.90
21092;DHT22;10704;42.678;23.288;2023-05-09T06:25:57;14.50;99.90
21092;DHT22;10704;42.678;23.288;2023-05-09T06:28:23;14.50;99.90
21092;DHT22;10704;42.678;23.288;2023-05-09T06:30:50;14.40;99.90
21092;DHT22;10704;42.678;23.288;2023-05-09T06:33:15;14.40;99.90
21092;DHT22;10704;42.678;23.288;2023-05-09T06:35:41;14.30;99.90
21092;DHT22;10704;42.678;23.288;2023-05-09T06:38:07;14.30;99.90
21092;DHT22;10704;42.678;23.288;2023-05-09T06:40:33;14.70;99.90
21092;DHT22;10704;42.678;23.288;2023-05-09T06:42:59;15.50;99.90
21092;DHT22;10704;42.678;23.288;2023-05-09T06:45:24;15.40;99.90
21092;DHT22;10704;42.678;23.288;2023-05-09T06:47:51;14.90;99.90
21092;DHT22;10704;42.678;23.288;2023-05-09T06:50:17;14.50;99.90
21092;DHT22;10704;42.678;23.288;2023-05-09T06:52:43;14.40;99.90
21092;DHT22;10704;42.678;23.288;2023-05-09T06:55:10;14.40;99.90
21092;DHT22;10704;42.678;23.288;2023-05-09T06:57:37;14.40;99.90
21092;DHT22;10704;42.678;23.288;2023-05-09T07:00:04;14.60;99.90
21092;DHT22;10704;42.678;23.288;2023-05-09T07:02:30;14.70;99.90
21092;DHT22;10704;42.678;23.288;2023-05-09T07:04:56;14.90;99.90
21092;DHT22;10704;42.678;23.288;2023-05-09T07:07:22;15.10;99.90
21092;DHT22;10704;42.678;23.288;2023-05-09T07:09:47;15.10;99.90
21092;DHT22;10704;42.678;23.288;2023-05-09T07:12:13;15.00;99.90
21092;DHT22;10704;42.678;23.288;2023-05-09T07:14:42;15.10;99.90
21092;DHT22;10704;42.678;23.288;2023-05-09T07:17:09;15.10;99.90
21092;DHT22;10704;42.678;23.288;2023-05-09T07:19:34;15.30;99.90
21092;DHT22;10704;42.678;23.288;2023-05-09T07:22:00;15.40;99.90
21092;DHT22;10704;42.678;23.288;2023-05-09T07:24:27;15.40;99.90
21092;DHT22;10704;42.678;23.288;2023-05-09T07:26:53;15.30;99.90
21092;DHT22;10704;42.678;23.288;2023-05-09T07:29:22;15.30;99.90
21092;DHT22;10704;42.678;23.288;2023-05-09T07:31:52;15.30;99.90
21092;DHT22;10704;42.678;23.288;2023-05-09T07:34:18;15.20;99.90
21092;DHT22;10704;42.678;23.288;2023-05-09T07:36:45;15.10;99.90
21092;DHT22;10704;42.678;23.288;2023-05-09T07:39:12;14.90;99.90
21092;DHT22;10704;42.678;23.288;2023-05-09T07:41:39;14.70;99.90
21092;DHT22;10704;42.678;23.288;2023-05-09T07:44:06;14.70;99.90
21092;DHT22;10704;42.678;23.288;2023-05-09T07:46:37;14.70;99.90
21092;DHT22;10704;42.678;23.288;2023-05-09T07:49:06;14.80;99.90
21092;DHT22;10704;42.678;23.288;2023-05-09T07:51:34;14.90;99.90
21092;DHT22;10704;42.678;23.288;2023-05-09T07:54:00;15.10;99.90
21092;DHT22;10704;42.678;23.288;2023-05-09T07:56:29;15.30;99.90
21092;DHT22;10704;42.678;23.288;2023-05-09T07:58:55;15.40;99.90
21092;DHT22;10704;42.678;23.288;2023-05-09T08:01:21;15.30;99.90
21092;DHT22;10704;42.678;23.288;2023-05-09T08:03:47;15.50;99.90
21092;DHT22;10704;42.678;23.288;2023-05-09T08:06:13;15.90;99.90
21092;DHT22;10704;42.678;23.288;2023-05-09T08:08:38;16.00;99.90
21092;DHT22;10704;42.678;23.288;2023-05-09T08:11:04;16.10;99.90
21092;DHT22;10704;42.678;23.288;2023-05-09T08:13:30;16.50;99.90
21092;DHT22;10704;42.678;23.288;2023-05-09T08:15:56;16.70;99.90
21092;DHT22;10704;42.678;23.288;2023-05-09T08:18:22;16.70;99.90
21092;DHT22;10704;42.678;23.288;2023-05-09T08:20:48;16.70;99.90
21092;DHT22;10704;42.678;23.288;2023-05-09T08:23:14;16.80;99.90
21092;DHT22;10704;42.678;23.288;2023-05-09T08:25:40;16.80;99.90
21092;DHT22;10704;42.678;23.288;2023-05-09T08:28:06;16.70;99.90
21092;DHT22;10704;42.678;23.288;2023-05-09T08:30:32;16.60;99.90
21092;DHT22;10704;42.678;23.288;2023-05-09T08:32:57;16.60;99.90
21092;DHT22;10704;42.678;23.288;2023-05-09T08:35:23;16.60;99.90
21092;DHT22;10704;42.678;23.288;2023-05-09T08:37:49;16.80;99.90
21092;DHT22;10704;42.678;23.288;2023-05-09T08:40:16;16.80;99.90
21092;DHT22;10704;42.678;23.288;2023-05-09T08:42:43;17.20;99.90
21092;DHT22;10704;42.678;23.288;2023-05-09T08:45:11;17.30;99.90
21092;DHT22;10704;42.678;23.288;2023-05-09T08:47:41;17.40;99.90
21092;DHT22;10704;42.678;23.288;2023-05-09T08:50:08;16.90;99.90
21092;DHT22;10704;42.678;23.288;2023-05-09T08:52:34;16.60;99.90
21092;DHT22;10704;42.678;23.288;2023-05-09T08:55:03;16.50;99.90
21092;DHT22;10704;42.678;23.288;2023-05-09T08:57:32;16.30;99.90
21092;DHT22;10704;42.678;23.288;2023-05-09T09:00:00;15.90;99.90
21092;DHT22;10704;42.678;23.288;2023-05-09T09:02:25;16.20;99.90
21092;DHT22;10704;42.678;23.288;2023-05-09T09:04:53;16.00;99.90
21092;DHT22;10704;42.678;23.288;2023-05-09T09:07:19;15.90;99.90
21092;DHT22;10704;42.678;23.288;2023-05-09T09:09:46;15.60;99.90
21092;DHT22;10704;42.678;23.288;2023-05-09T09:12:14;15.30;99.90
21092;DHT22;10704;42.678;23.288;2023-05-09T09:14:46;15.30;99.90
21092;DHT22;10704;42.678;23.288;2023-05-09T09:17:18;15.10;99.90
21092;DHT22;10704;42.678;23.288;2023-05-09T09:19:48;15.30;99.90
21092;DHT22;10704;42.678;23.288;2023-05-09T09:22:16;15.20;99.90
21092;DHT22;10704;42.678;23.288;2023-05-09T09:24:43;15.10;99.90
21092;DHT22;10704;42.678;23.288;2023-05-09T09:27:10;15.20;99.90
21092;DHT22;10704;42.678;23.288;2023-05-09T09:29:37;15.10;99.90
21092;DHT22;10704;42.678;23.288;2023-05-09T09:32:06;15.10;99.90
21092;DHT22;10704;42.678;23.288;2023-05-09T09:34:32;15.20;99.90
21092;DHT22;10704;42.678;23.288;2023-05-09T09:36:58;15.10;99.90
21092;DHT22;10704;42.678;23.288;2023-05-09T09:39:24;14.80;99.90
21092;DHT22;10704;42.678;23.288;2023-05-09T09:41:50;14.90;99.90
21092;DHT22;10704;42.678;23.288;2023-05-09T09:44:17;14.90;99.90
21092;DHT22;10704;42.678;23.288;2023-05-09T09:46:50;15.00;99.90
21092;DHT22;10704;42.678;23.288;2023-05-09T09:49:24;15.00;99.90
21092;DHT22;10704;42.678;23.288;2023-05-09T09:51:56;15.10;99.90
21092;DHT22;10704;42.678;23.288;2023-05-09T09:54:25;15.10;99.90
21092;DHT22;10704;42.678;23.288;2023-05-09T09:56:52;15.10;99.90
21092;DHT22;10704;42.678;23.288;2023-05-09T09:59:25;14.90;99.90
21092;DHT22;10704;42.678;23.288;2023-05-09T10:02:03;15.10;99.90
21092;DHT22;10704;42.678;23.288;2023-05-09T10:04:31;15.20;99.90
21092;DHT22;10704;42.678;23.288;2023-05-09T10:07:02;15.40;99.90
21092;DHT22;10704;42.678;23.288;2023-05-09T10:09:29;15.60;99.90
21092;DHT22;10704;42.678;23.288;2023-05-09T10:11:56;15.50;99.90
21092;DHT22;10704;42.678;23.288;2023-05-09T10:14:26;15.60;99.90
21092;DHT22;10704;42.678;23.288;2023-05-09T10:16:54;15.40;99.90
21092;DHT22;10704;42.678;23.288;2023-05-09T10:19:22;15.80;99.90
21092;DHT22;10704;42.678;23.288;2023-05-09T10:21:55;16.40;99.90
21092;DHT22;10704;42.678;23.288;2023-05-09T10:24:47;16.70;99.90
21092;DHT22;10704;42.678;23.288;2023-05-09T10:27:20;16.40;99.90
21092;DHT22;10704;42.678;23.288;2023-05-09T10:30:01;16.10;99.90
21092;DHT22;10704;42.678;23.288;2023-05-09T10:35:09;15.70;99.90
21092;DHT22;10704;42.678;23.288;2023-05-09T10:37:36;15.80;99.90
21092;DHT22;10704;42.678;23.288;2023-05-09T10:40:03;15.90;99.90
21092;DHT22;10704;42.678;23.288;2023-05-09T10:42:30;16.00;99.90
21092;DHT22;10704;42.678;23.288;2023-05-09T10:44:56;16.40;99.90
21092;DHT22;10704;42.678;23.288;2023-05-09T10:47:26;16.50;99.90
21092;DHT22;10704;42.678;23.288;2023-05-09T10:49:53;16.20;99.90
21092;DHT22;10704;42.678;23.288;2023-05-09T10:52:22;16.40;99.90
21092;DHT22;10704;42.678;23.288;2023-05-09T10:55:17;16.40;99.90
21092;DHT22;10704;42.678;23.288;2023-05-09T10:57:51;16.70;99.90
21092;DHT22;10704;42.678;23.288;2023-05-09T11:00:23;17.20;99.90
21092;DHT22;10704;42.678;23.288;2023-05-09T11:03:07;17.20;99.90
21092;DHT22;10704;42.678;23.288;2023-05-09T11:05:40;18.10;99.90
21092;DHT22;10704;42.678;23.288;2023-05-09T11:08:27;18.60;99.90
21092;DHT22;10704;42.678;23.288;2023-05-09T11:10:57;18.30;99.90
21092;DHT22;10704;42.678;23.288;2023-05-09T11:13:29;18.00;99.90
21092;DHT22;10704;42.678;23.288;2023-05-09T11:18:27;18.70;99.90
21092;DHT22;10704;42.678;23.288;2023-05-09T11:20:55;19.30;99.90
21092;DHT22;10704;42.678;23.288;2023-05-09T11:23:24;19.40;99.90
21092;DHT22;10704;42.678;23.288;2023-05-09T11:25:51;19.30;99.90
21092;DHT22;10704;42.678;23.288;2023-05-09T11:28:31;19.40;99.90
21092;DHT22;10704;42.678;23.288;2023-05-09T11:33:37;19.00;99.90
21092;DHT22;10704;42.678;23.288;2023-05-09T11:36:28;18.90;99.90
21092;DHT22;10704;42.678;23.288;2023-05-09T11:41:27;18.60;99.90
21092;DHT22;10704;42.678;23.288;2023-05-09T11:43:54;18.40;99.90
21092;DHT22;10704;42.678;23.288;2023-05-09T11:46:21;18.30;99.90
21092;DHT22;10704;42.678;23.288;2023-05-09T11:48:47;18.50;99.90
21092;DHT22;10704;42.678;23.288;2023-05-09T11:51:17;18.60;99.90
21092;DHT22;10704;42.678;23.288;2023-05-09T11:53:44;18.30;99.90
21092;DHT22;10704;42.678;23.288;2023-05-09T11:56:12;18.20;99.90
21092;DHT22;10704;42.678;23.288;2023-05-09T11:58:38;18.20;99.90
21092;DHT22;10704;42.678;23.288;2023-05-09T12:01:04;17.90;99.90
21092;DHT22;10704;42.678;23.288;2023-05-09T12:03:31;17.20;99.90
21092;DHT22;10704;42.678;23.288;2023-05-09T12:05:57;17.10;99.90
21092;DHT22;10704;42.678;23.288;2023-05-09T12:08:23;17.00;99.90
21092;DHT22;10704;42.678;23.288;2023-05-09T12:10:49;17.00;99.90
21092;DHT22;10704;42.678;23.288;2023-05-09T12:13:16;16.90;99.90
21092;DHT22;10704;42.678;23.288;2023-05-09T12:15:43;16.20;99.90
21092;DHT22;10704;42.678;23.288;2023-05-09T12:18:09;16.00;99.90
21092;DHT22;10704;42.678;23.288;2023-05-09T12:23:11;16.20;99.90
21092;DHT22;10704;42.678;23.288;2023-05-09T12:25:46;16.00;99.90
21092;DHT22;10704;42.678;23.288;2023-05-09T12:28:12;15.60;99.90
21092;DHT22;10704;42.678;23.288;2023-05-09T12:30:38;15.50;99.90
21092;DHT22;10704;42.678;23.288;2023-05-09T12:33:04;15.40;99.90
21092;DHT22;10704;42.678;23.288;2023-05-09T12:35:30;15.30;99.90
21092;DHT22;10704;42.678;23.288;2023-05-09T12:37:59;15.10;99.90
21092;DHT22;10704;42.678;23.288;2023-05-09T12:40:26;15.10;99.90
21092;DHT22;10704;42.678;23.288;2023-05-09T12:42:52;15.20;99.90
21092;DHT22;10704;42.678;23.288;2023-05-09T12:45:21;15.10;99.90
21092;DHT22;10704;42.678;23.288;2023-05-09T12:47:50;15.00;99.90
21092;DHT22;10704;42.678;23.288;2023-05-09T12:50:16;15.20;99.90
21092;DHT22;10704;42.678;23.288;2023-05-09T12:52:42;15.50;99.90
21092;DHT22;10704;42.678;23.288;2023-05-09T12:55:11;15.50;99.90
21092;DHT22;10704;42.678;23.288;2023-05-09T12:57:38;15.20;99.90
21092;DHT22;10704;42.678;23.288;2023-05-09T13:00:08;15.10;99.90
21092;DHT22;10704;42.678;23.288;2023-05-09T13:02:39;15.00;99.90
21092;DHT22;10704;42.678;23.288;2023-05-09T13:07:43;14.90;99.90
21092;DHT22;10704;42.678;23.288;2023-05-09T13:10:16;15.20;99.90
21092;DHT22;10704;42.678;23.288;2023-05-09T13:12:44;15.50;99.90
21092;DHT22;10704;42.678;23.288;2023-05-09T13:15:13;15.50;99.90
21092;DHT22;10704;42.678;23.288;2023-05-09T13:17:39;15.60;99.90
21092;DHT22;10704;42.678;23.288;2023-05-09T13:20:05;15.70;99.90
21092;DHT22;10704;42.678;23.288;2023-05-09T13:22:32;15.30;99.90
21092;DHT22;10704;42.678;23.288;2023-05-09T13:24:58;15.10;99.90
21092;DHT22;10704;42.678;23.288;2023-05-09T13:27:25;14.90;99.90
21092;DHT22;10704;42.678;23.288;2023-05-09T13:29:52;15.30;99.90
21092;DHT22;10704;42.678;23.288;2023-05-09T13:32:18;15.20;99.90
21092;DHT22;10704;42.678;23.288;2023-05-09T13:34:44;15.20;99.90
21092;DHT22;10704;42.678;23.288;2023-05-09T13:37:11;15.00;99.90
21092;DHT22;10704;42.678;23.288;2023-05-09T13:39:37;14.90;99.90
21092;DHT22;10704;42.678;23.288;2023-05-09T13:42:02;14.70;99.90
21092;DHT22;10704;42.678;23.288;2023-05-09T13:44:28;14.60;99.90
21092;DHT22;10704;42.678;23.288;2023-05-09T13:46:54;14.50;99.90
21092;DHT22;10704;42.678;23.288;2023-05-09T13:49:22;14.60;99.90
21092;DHT22;10704;42.678;23.288;2023-05-09T13:51:47;14.60;99.90
21092;DHT22;10704;42.678;23.288;2023-05-09T13:54:14;14.30;99.90
21092;DHT22;10704;42.678;23.288;2023-05-09T13:56:42;14.20;99.90
21092;DHT22;10704;42.678;23.288;2023-05-09T13:59:08;14.40;99.90
21092;DHT22;10704;42.678;23.288;2023-05-09T14:01:34;14.50;99.90
21092;DHT22;10704;42.678;23.288;2023-05-09T14:04:00;14.30;99.90
21092;DHT22;10704;42.678;23.288;2023-05-09T14:06:27;14.30;99.90
21092;DHT22;10704;42.678;23.288;2023-05-09T14:08:55;14.50;99.90
21092;DHT22;10704;42.678;23.288;2023-05-09T14:11:21;14.40;99.90
21092;DHT22;10704;42.678;23.288;2023-05-09T14:13:48;14.40;99.90
21092;DHT22;10704;42.678;23.288;2023-05-09T14:16:13;14.30;99.90
21092;DHT22;10704;42.678;23.288;2023-05-09T14:18:39;14.00;99.90
21092;DHT22;10704;42.678;23.288;2023-05-09T14:21:05;13.90;99.90
21092;DHT22;10704;42.678;23.288;2023-05-09T14:23:31;14.00;99.90
21092;DHT22;10704;42.678;23.288;2023-05-09T14:25:57;14.00;99.90
21092;DHT22;10704;42.678;23.288;2023-05-09T14:28:23;14.00;99.90
21092;DHT22;10704;42.678;23.288;2023-05-09T14:30:49;14.20;99.90
21092;DHT22;10704;42.678;23.288;2023-05-09T14:33:14;14.20;99.90
21092;DHT22;10704;42.678;23.288;2023-05-09T14:35:40;14.20;99.90
21092;DHT22;10704;42.678;23.288;2023-05-09T14:38:06;14.00;99.90
21092;DHT22;10704;42.678;23.288;2023-05-09T14:40:32;14.10;99.90
21092;DHT22;10704;42.678;23.288;2023-05-09T14:42:58;14.00;99.90
21092;DHT22;10704;42.678;23.288;2023-05-09T14:45:30;13.80;99.90
21092;DHT22;10704;42.678;23.288;2023-05-09T14:47:58;13.80;99.90
21092;DHT22;10704;42.678;23.288;2023-05-09T14:50:24;13.50;99.90
21092;DHT22;10704;42.678;23.288;2023-05-09T14:52:50;13.50;99.90
21092;DHT22;10704;42.678;23.288;2023-05-09T14:55:17;13.40;99.90
21092;DHT22;10704;42.678;23.288;2023-05-09T14:57:43;13.30;99.90
21092;DHT22;10704;42.678;23.288;2023-05-09T15:00:09;13.30;99.90
21092;DHT22;10704;42.678;23.288;2023-05-09T15:02:35;13.40;99.90
21092;DHT22;10704;42.678;23.288;2023-05-09T15:05:02;13.50;99.90
21092;DHT22;10704;42.678;23.288;2023-05-09T15:07:28;13.50;99.90
21092;DHT22;10704;42.678;23.288;2023-05-09T15:09:54;13.40;99.90
21092;DHT22;10704;42.678;23.288;2023-05-09T15:12:20;13.50;99.90
21092;DHT22;10704;42.678;23.288;2023-05-09T15:14:46;13.30;99.90
21092;DHT22;10704;42.678;23.288;2023-05-09T15:17:12;13.20;99.90
21092;DHT22;10704;42.678;23.288;2023-05-09T15:19:37;13.20;99.90
21092;DHT22;10704;42.678;23.288;2023-05-09T15:22:04;13.20;99.90
21092;DHT22;10704;42.678;23.288;2023-05-09T15:24:30;13.00;99.90
21092;DHT22;10704;42.678;23.288;2023-05-09T15:26:56;13.00;99.90
21092;DHT22;10704;42.678;23.288;2023-05-09T15:29:22;12.90;99.90
21092;DHT22;10704;42.678;23.288;2023-05-09T15:31:48;12.90;99.90
21092;DHT22;10704;42.678;23.288;2023-05-09T15:34:14;12.90;99.90
21092;DHT22;10704;42.678;23.288;2023-05-09T15:36:40;12.70;99.90
21092;DHT22;10704;42.678;23.288;2023-05-09T15:39:06;12.60;99.90
21092;DHT22;10704;42.678;23.288;2023-05-09T15:41:31;12.60;99.90
21092;DHT22;10704;42.678;23.288;2023-05-09T15:43:59;12.60;99.90
21092;DHT22;10704;42.678;23.288;2023-05-09T15:46:26;12.60;99.90